This is the latest recevied weather packets stored in our database for station/object F5IOR-13. If no packets are shown the sender has not sent any weather packets the latest 10 day(s).
| Time | Temp. | Humidity | Pressure | Rain* | Wind** | Luminosity | Snow |
|---|---|---|---|---|---|---|---|
| 1777464504 | 22.22° C | 48% | 986.3 hPa | 0 mm | - | - | - |
| 1777462704 | 22.22° C | 51% | 986.3 hPa | 0 mm | - | - | - |
| 1777460904 | 21.11° C | 59% | 986.6 hPa | 0 mm | - | - | - |
| 1777459104 | 20.56° C | 60% | 986.6 hPa | 0 mm | - | - | - |
| 1777457304 | 19.44° C | 64% | 986.8 hPa | 0 mm | - | - | - |
| 1777455504 | 18.89° C | 65% | 986.8 hPa | 0 mm | - | - | - |
| 1777454544 | 17.78° C | 69% | 986.8 hPa | 0 mm | - | - | - |
| 1777453584 | 17.78° C | 71% | 986.8 hPa | 0 mm | - | - | - |
| 1777452624 | 17.22° C | 73% | 986.8 hPa | 0 mm | - | - | - |
| 1777451664 | 16.11° C | 78% | 986.7 hPa | 0 mm | - | - | - |
| 1777451184 | 16.11° C | 78% | 986.7 hPa | 0 mm | - | - | - |
| 1777450704 | 16.11° C | 78% | 986.7 hPa | 0 mm | - | - | - |
| 1777450224 | 15.56° C | 79% | 986.7 hPa | 0 mm | - | - | - |
| 1777449744 | 15.56° C | 79% | 986.7 hPa | 0 mm | - | - | - |
| 1777449504 | 15° C | 82% | 986.6 hPa | 0 mm | - | - | - |
| 1777449264 | 15° C | 82% | 986.6 hPa | 0 mm | - | - | - |
| 1777449024 | 15° C | 82% | 986.6 hPa | 0 mm | - | - | - |
| 1777448784 | 15° C | 82% | 986.6 hPa | 0 mm | - | - | - |
| 1777448664 | 15° C | 82% | 986.6 hPa | 0 mm | - | - | - |
| 1777448544 | 15° C | 82% | 986.6 hPa | 0 mm | - | - | - |
| 1777448424 | 15° C | 82% | 986.6 hPa | 0 mm | - | - | - |
| 1777448304 | 15° C | 82% | 986.6 hPa | 0 mm | - | - | - |
| 1777448244 | 15° C | 82% | 986.6 hPa | 0 mm | - | - | - |
| 1777448184 | 15° C | 82% | 986.6 hPa | 0 mm | - | - | - |
| 1777448124 | 15° C | 82% | 986.6 hPa | 0 mm | - | - | - |
* Rain latest hour (hover to see other rain measurements)
** Current wind speed in m/s (hover to see current wind gust speed)